Time;durP1;ratioP1;P1;durP2;ratioP2;P2;SDS_P1;SDS_P2;PMS_P1;PMS_P2;Temp;Humidity;BMP_temperature;BMP_pressure;BME280_temperature;BME280_humidity;BME280_pressure;Samples;Min_cycle;Max_cycle;Signal;HPM_P1;HPM_P2
2022/06/01 00:02:00;;;;;;;;;;;;;;;;;;;;;
2022/06/01 00:11:26;;;;;;;8.60;4.70;;;;;;;-147.90;100.00;59510.75;4847089;29;20501;-90
2022/06/01 00:13:54;;;;;;;7.30;4.38;;;;;;;-147.90;100.00;59510.75;4935060;29;20076;-90
2022/06/01 00:16:30;;;;;;;;;;;;;;;;;;;;;
2022/06/01 00:18:57;;;;;;;6.75;4.63;;;;;;;-147.90;100.00;59510.75;4933799;29;20406;-90
2022/06/01 00:24:41;;;;;;;;;;;;;;;;;;;;;
2022/06/01 00:27:12;;;;;;;9.07;5.20;;;;;;;-147.90;100.00;59510.75;4928407;29;20063;-90
2022/06/01 00:29:45;;;;;;;8.75;4.80;;;;;;;-147.90;100.00;59510.75;4935329;29;20111;-90
2022/06/01 00:32:16;;;;;;;6.53;4.32;;;;;;;-147.90;100.00;59510.75;4931951;29;20391;-90
2022/06/01 00:34:44;;;;;;;6.18;4.20;;;;;;;-147.90;100.00;59510.75;4934855;29;20147;-90
2022/06/01 00:37:22;;;;;;;;;;;;;;;;;;;;;
2022/06/01 00:44:06;;;;;;;;;;;;;;;;;;;;;
2022/06/01 00:46:37;;;;;;;7.40;4.82;;;;;;;-147.90;100.00;59510.75;4830974;29;20063;-90
2022/06/01 00:49:11;;;;;;;10.77;6.28;;;;;;;-147.90;100.00;59510.75;4934529;29;20091;-90
2022/06/01 00:51:43;;;;;;;11.35;7.05;;;;;;;-147.90;100.00;59510.75;4932740;29;20487;-90
2022/06/01 00:54:10;;;;;;;12.23;6.57;;;;;;;-147.90;100.00;59510.75;4933041;29;20083;-89
2022/06/01 00:56:46;;;;;;;11.02;6.40;;;;;;;-147.90;100.00;59510.75;4932377;29;20462;-90
2022/06/01 00:59:28;;;;;;;8.52;5.53;;;;;;;-147.90;100.00;59510.75;4933246;29;20051;-90
2022/06/01 01:02:06;;;;;;;8.70;5.47;;;;;;;-147.90;100.00;59510.75;4932637;29;20051;-91
2022/06/01 01:18:52;;;;;;;7.07;4.20;;;;;;;-147.90;100.00;59510.75;4785914;29;20684;-90
2022/06/01 01:22:20;;;;;;;5.68;4.00;;;;;;;-147.90;100.00;59510.75;4764817;30;20469;-90
2022/06/01 01:28:16;;;;;;;12.32;5.43;;;;;;;-147.90;100.00;59510.75;4730421;30;20497;-90
2022/06/01 01:31:06;;;;;;;7.75;4.70;;;;;;;-147.90;100.00;59510.75;4794089;29;20048;-90
2022/06/01 01:33:38;;;;;;;12.48;6.57;;;;;;;-147.90;100.00;59510.75;4889497;29;20971;-91
2022/06/01 01:36:09;;;;;;;18.02;7.85;;;;;;;-147.90;100.00;59510.75;4933804;29;20055;-89
2022/06/01 01:38:42;;;;;;;16.13;6.90;;;;;;;-147.90;100.00;59510.75;4933715;29;20048;-90
2022/06/01 01:41:25;;;;;;;;;;;;;;;;;;;;;
2022/06/01 01:44:04;;;;;;;18.15;9.80;;;;;;;-147.90;100.00;59510.75;4924403;29;20086;-90
2022/06/01 01:46:34;;;;;;;18.25;8.60;;;;;;;-147.90;100.00;59510.75;4924873;29;20143;-89
2022/06/01 01:49:03;;;;;;;19.63;9.02;;;;;;;-147.90;100.00;59510.75;4931950;29;20044;-89
2022/06/01 01:51:38;;;;;;;24.63;9.52;;;;;;;-147.90;100.00;59510.75;4932016;29;20511;-89
2022/06/01 01:54:12;;;;;;;12.70;7.60;;;;;;;-147.90;100.00;59510.75;4932150;29;20043;-89
2022/06/01 01:56:54;;;;;;;13.20;7.93;;;;;;;-147.90;100.00;59510.75;4932539;29;20542;-89
2022/06/01 01:59:42;;;;;;;17.02;8.80;;;;;;;-147.90;100.00;59510.75;4932083;29;20043;-90
2022/06/01 02:02:19;;;;;;;14.10;8.10;;;;;;;-147.90;100.00;59510.75;4922605;29;20040;-90
2022/06/01 02:07:43;;;;;;;16.88;8.82;;;;;;;-147.90;100.00;59510.75;4926307;29;20067;-89
2022/06/01 02:12:59;;;;;;;15.80;9.25;;;;;;;-147.90;100.00;59510.75;4925229;29;20503;-89
2022/06/01 02:15:33;;;;;;;16.08;9.43;;;;;;;-147.90;100.00;59510.75;4921532;29;20116;-89
2022/06/01 02:18:06;;;;;;;14.07;9.55;;;;;;;-147.90;100.00;59510.75;4924820;29;20392;-89
2022/06/01 02:20:44;;;;;;;16.00;9.65;;;;;;;-147.90;100.00;59510.75;4924682;29;20047;-89
2022/06/01 02:23:16;;;;;;;17.38;9.32;;;;;;;-147.90;100.00;59510.75;4921900;29;20044;-89
2022/06/01 02:25:48;;;;;;;19.38;10.02;;;;;;;-147.90;100.00;59510.75;4922755;29;20095;-89
2022/06/01 02:28:15;;;;;;;14.13;9.20;;;;;;;-147.90;100.00;59510.75;4923565;29;20054;-89
2022/06/01 02:30:56;;;;;;;16.52;10.40;;;;;;;-147.90;100.00;59510.75;4925150;29;20044;-90
2022/06/01 02:33:31;;;;;;;15.68;9.15;;;;;;;-147.90;100.00;59510.75;4924510;29;20059;-89
2022/06/01 02:35:59;;;;;;;14.60;8.93;;;;;;;-147.90;100.00;59510.75;4926000;29;20056;-90
2022/06/01 02:38:32;;;;;;;13.30;8.38;;;;;;;-147.90;100.00;59510.75;4925464;29;20131;-89
2022/06/01 02:41:02;;;;;;;17.75;8.68;;;;;;;-147.90;100.00;59510.75;4924860;29;20052;-89
2022/06/01 02:43:29;;;;;;;15.85;9.07;;;;;;;-147.90;100.00;59510.75;4924513;29;20051;-89
2022/06/01 02:45:59;;;;;;;15.15;8.05;;;;;;;-147.90;100.00;59510.75;4956066;28;20059;-89
2022/06/01 02:48:25;;;;;;;14.60;7.88;;;;;;;-147.90;100.00;59510.75;4960504;28;20118;-89
2022/06/01 02:50:54;;;;;;;14.38;7.53;;;;;;;-147.90;100.00;59510.75;4962534;28;20109;-88
2022/06/01 02:53:21;;;;;;;15.55;8.35;;;;;;;-147.90;100.00;59510.75;4961874;28;20109;-89
2022/06/01 02:55:50;;;;;;;15.02;8.40;;;;;;;-147.90;100.00;59510.75;4960590;28;20043;-89
2022/06/01 02:58:16;;;;;;;12.05;7.10;;;;;;;-147.90;100.00;59510.75;4961901;28;20126;-89
2022/06/01 03:00:46;;;;;;;12.48;7.65;;;;;;;-147.90;100.00;59510.75;4960208;28;20047;-88
2022/06/01 03:03:15;;;;;;;10.98;6.97;;;;;;;-147.90;100.00;59510.75;4960610;28;20501;-88
2022/06/01 03:05:43;;;;;;;14.82;7.78;;;;;;;-147.90;100.00;59510.75;4962108;28;20059;-88
2022/06/01 03:08:15;;;;;;;11.00;6.88;;;;;;;-147.90;100.00;59510.75;4963309;28;20082;-89
2022/06/01 03:10:44;;;;;;;10.80;6.97;;;;;;;-147.90;100.00;59510.75;4962712;28;20105;-90
2022/06/01 03:13:11;;;;;;;15.88;8.25;;;;;;;-147.90;100.00;59510.75;4961933;28;20079;-90
2022/06/01 03:15:44;;;;;;;13.05;7.72;;;;;;;-147.90;100.00;59510.75;4962726;28;20084;-90
2022/06/01 03:18:12;;;;;;;10.85;6.93;;;;;;;-147.90;100.00;59510.75;4962222;28;20105;-90
2022/06/01 03:20:50;;;;;;;;;;;;;;;;;;;;;
2022/06/01 03:23:19;;;;;;;17.92;8.18;;;;;;;-147.90;100.00;59510.75;4957954;28;20061;-89
2022/06/01 03:25:46;;;;;;;11.43;8.02;;;;;;;-147.90;100.00;59510.75;4969203;28;20047;-90
2022/06/01 03:28:13;;;;;;;15.10;7.35;;;;;;;-147.90;100.00;59510.75;4968030;28;20051;-89
2022/06/01 03:30:43;;;;;;;12.00;7.13;;;;;;;-147.90;100.00;59510.75;4967129;28;20051;-90
2022/06/01 03:33:16;;;;;;;16.00;9.15;;;;;;;-147.90;100.00;59510.75;4966958;28;20057;-89
2022/06/01 03:35:59;;;;;;;;;;;;;;;;;;;;;
2022/06/01 03:38:48;;;;;;;10.73;7.07;;;;;;;-147.90;100.00;59510.75;4967555;28;20057;-90
2022/06/01 03:41:28;;;;;;;;;;;;;;;;;;;;;
2022/06/01 03:46:43;;;;;;;14.07;7.88;;;;;;;-147.90;100.00;59510.75;4975200;28;20073;-89
2022/06/01 03:49:29;;;;;;;10.48;6.80;;;;;;;-147.90;100.00;59510.75;4975357;28;20070;-90
2022/06/01 03:52:04;;;;;;;10.48;5.95;;;;;;;-147.90;100.00;59510.75;4975470;28;20049;-90
2022/06/01 03:54:41;;;;;;;;;;;;;;;;;;;;;
2022/06/01 03:57:10;;;;;;;11.00;6.95;;;;;;;-147.90;100.00;59510.75;4972932;28;20050;-90
2022/06/01 03:59:41;;;;;;;9.75;5.68;;;;;;;-147.90;100.00;59510.75;4976805;28;20472;-89
2022/06/01 04:02:08;;;;;;;11.85;6.40;;;;;;;-147.90;100.00;59510.75;4976426;28;20043;-88
2022/06/01 04:04:35;;;;;;;11.68;6.07;;;;;;;-147.90;100.00;59510.75;4976446;28;20051;-89
2022/06/01 04:07:18;;;;;;;;;;;;;;;;;;;;;
2022/06/01 04:09:45;;;;;;;10.00;6.30;;;;;;;-147.90;100.00;59510.75;4973700;28;20053;-88
2022/06/01 04:12:18;;;;;;;10.73;6.65;;;;;;;-147.90;100.00;59510.75;4976673;28;20047;-89
2022/06/01 04:17:46;;;;;;;10.35;7.20;;;;;;;-147.90;100.00;59510.75;4937645;28;20173;-89
2022/06/01 04:20:13;;;;;;;12.88;7.82;;;;;;;-147.90;100.00;59510.75;4976826;28;20039;-89
2022/06/01 04:22:44;;;;;;;12.73;7.53;;;;;;;-147.90;100.00;59510.75;4974314;28;20043;-89
2022/06/01 04:25:20;;;;;;;13.70;8.35;;;;;;;-147.90;100.00;59510.75;4976438;28;20465;-89
2022/06/01 04:38:40;;;;;;;14.30;7.95;;;;;;;-147.90;100.00;59510.75;4726656;29;20057;-89
2022/06/01 04:48:02;;;;;;;;;;;;;;;;;;;;;
2022/06/01 04:50:39;;;;;;;;;;;;;;;;;;;;;
2022/06/01 04:53:13;;;;;;;10.55;7.10;;;;;;;-147.90;100.00;59510.75;4970133;28;20043;-90
2022/06/01 04:55:49;;;;;;;11.35;6.68;;;;;;;-147.90;100.00;59510.75;4973228;28;20058;-88
2022/06/01 04:58:22;;;;;;;14.95;7.05;;;;;;;-147.90;100.00;59510.75;4971588;28;20093;-88
2022/06/01 05:00:53;;;;;;;12.02;6.93;;;;;;;-147.90;100.00;59510.75;4971753;28;20050;-89
2022/06/01 05:17:03;;;;;;;;;;;;;;;;;;;;;
2022/06/01 05:51:36;;;;;;;26.50;15.45;;;;;;;-147.90;100.00;59510.75;4837905;29;20048;-90
2022/06/01 05:54:04;;;;;;;29.98;17.38;;;;;;;-147.90;100.00;59510.75;4891806;29;20423;-90
2022/06/01 05:56:33;;;;;;;26.20;15.25;;;;;;;-147.90;100.00;59510.75;4891284;29;20048;-91
2022/06/01 05:59:17;;;;;;;28.50;15.65;;;;;;;-147.90;100.00;59510.75;4891307;29;20052;-89
2022/06/01 06:01:44;;;;;;;28.77;15.57;;;;;;;-147.90;100.00;59510.75;4892878;29;20056;-88
2022/06/01 06:04:10;;;;;;;27.23;14.43;;;;;;;-147.90;100.00;59510.75;4892717;29;20105;-87
2022/06/01 06:06:39;;;;;;;27.42;14.30;;;;;;;-147.90;100.00;59510.75;4892919;29;20044;-89
2022/06/01 06:09:09;;;;;;;26.33;13.32;;;;;;;-147.90;100.00;59510.75;4893007;29;20048;-87
2022/06/01 06:11:39;;;;;;;29.00;12.75;;;;;;;-147.90;100.00;59510.75;4891431;29;20428;-87
2022/06/01 06:14:06;;;;;;;29.00;12.20;;;;;;;-147.90;100.00;59510.75;4889471;29;20045;-85
2022/06/01 06:16:36;;;;;;;21.85;13.07;;;;;;;-147.90;100.00;59510.75;4932080;28;20043;-85
2022/06/01 06:19:03;;;;;;;33.10;13.77;;;;;;;-147.90;100.00;59510.75;4971435;28;20494;-85
2022/06/01 06:21:31;;;;;;;22.35;11.77;;;;;;;-147.90;100.00;59510.75;4971245;28;20105;-85
2022/06/01 06:24:02;;;;;;;22.80;10.93;;;;;;;-147.90;100.00;59510.75;4971281;28;20485;-84
2022/06/01 06:26:29;;;;;;;23.00;10.55;;;;;;;-147.90;100.00;59510.75;4971148;28;20497;-84
2022/06/01 06:28:58;;;;;;;17.33;9.55;;;;;;;-147.90;100.00;59510.75;4971275;28;20047;-84
2022/06/01 06:31:25;;;;;;;21.73;10.45;;;;;;;-147.90;100.00;59510.75;4971231;28;20587;-85
2022/06/01 06:33:51;;;;;;;19.88;9.93;;;;;;;-147.90;100.00;59510.75;4967247;28;20043;-83
2022/06/01 06:36:18;;;;;;;16.27;9.90;;;;;;;-147.90;100.00;59510.75;4971252;28;20085;-83
2022/06/01 06:38:45;;;;;;;18.63;10.68;;;;;;;-147.90;100.00;59510.75;4971188;28;20054;-84
2022/06/01 06:41:12;;;;;;;17.70;8.82;;;;;;;-147.90;100.00;59510.75;4971117;28;20093;-84
2022/06/01 06:43:39;;;;;;;17.58;9.85;;;;;;;-147.90;100.00;59510.75;4970735;28;20051;-83
2022/06/01 06:46:09;;;;;;;17.70;9.85;;;;;;;-147.90;100.00;59510.75;4971174;28;20121;-83
2022/06/01 06:48:37;;;;;;;17.25;8.43;;;;;;;-147.90;100.00;59510.75;4951872;28;20040;-83
2022/06/01 06:51:04;;;;;;;20.80;8.73;;;;;;;-147.90;100.00;59510.75;4951623;29;20107;-82
2022/06/01 06:53:31;;;;;;;16.55;8.32;;;;;;;-147.90;100.00;59510.75;4951182;28;20055;-82
2022/06/01 06:55:58;;;;;;;19.80;8.95;;;;;;;-147.90;100.00;59510.75;4949770;29;20569;-82
2022/06/01 06:58:25;;;;;;;28.60;9.32;;;;;;;-147.90;100.00;59510.75;4951374;29;20502;-83
2022/06/01 07:00:52;;;;;;;20.60;9.82;;;;;;;-147.90;100.00;59510.75;4951706;29;20134;-83
2022/06/01 07:03:21;;;;;;;20.48;9.88;;;;;;;-147.90;100.00;59510.75;4951298;29;20544;-84
2022/06/01 07:08:32;;;;;;;20.88;9.43;;;;;;;-147.90;100.00;59510.75;4951558;29;20058;-83
2022/06/01 07:11:00;;;;;;;19.48;8.80;;;;;;;-147.90;100.00;59510.75;4951280;28;20106;-84
2022/06/01 07:13:28;;;;;;;21.98;7.97;;;;;;;-147.90;100.00;59510.75;4951354;29;20443;-84
2022/06/01 07:16:07;;;;;;;20.70;8.07;;;;;;;-147.90;100.00;59510.75;4951620;28;20047;-83
2022/06/01 07:18:36;;;;;;;16.10;7.75;;;;;;;-147.90;100.00;59510.75;4949845;29;20047;-84
2022/06/01 07:21:03;;;;;;;14.55;7.00;;;;;;;-147.90;100.00;59510.75;4949564;28;20043;-85
2022/06/01 07:23:30;;;;;;;14.43;7.20;;;;;;;-147.90;100.00;59510.75;4952816;28;20048;-85
2022/06/01 07:25:57;;;;;;;18.75;6.95;;;;;;;-147.90;100.00;59510.75;4952682;28;20407;-84
2022/06/01 07:28:24;;;;;;;15.02;7.18;;;;;;;-147.90;100.00;59510.75;4951142;29;20098;-85
2022/06/01 07:30:56;;;;;;;14.30;7.25;;;;;;;-147.90;100.00;59510.75;4951282;29;20553;-85
2022/06/01 07:33:23;;;;;;;16.25;7.35;;;;;;;-147.90;100.00;59510.75;4949909;28;20047;-85
2022/06/01 07:35:52;;;;;;;11.05;6.60;;;;;;;-147.90;100.00;59510.75;4951045;28;20047;-86
2022/06/01 07:43:48;;;;;;;15.98;5.05;;;;;;;-147.90;100.00;59510.75;4951242;29;20050;-85
2022/06/01 07:46:14;;;;;;;8.55;4.43;;;;;;;-147.90;100.00;59510.75;4951524;28;20047;-85
2022/06/01 07:48:41;;;;;;;9.90;4.55;;;;;;;-147.90;100.00;59510.75;4967614;28;20106;-86
2022/06/01 07:51:09;;;;;;;8.65;3.83;;;;;;;-147.90;100.00;59510.75;4970572;28;20109;-85
2022/06/01 07:53:36;;;;;;;11.98;4.57;;;;;;;-147.90;100.00;59510.75;4968538;28;20046;-86
2022/06/01 07:56:03;;;;;;;11.32;5.40;;;;;;;-147.90;100.00;59510.75;4970233;28;20497;-87
2022/06/01 07:58:29;;;;;;;18.67;5.30;;;;;;;-147.90;100.00;59510.75;4970196;28;20055;-86
2022/06/01 08:00:56;;;;;;;10.55;4.80;;;;;;;-147.90;100.00;59510.75;4970278;28;20046;-87
2022/06/01 08:03:23;;;;;;;10.65;6.13;;;;;;;-147.90;100.00;59510.75;4970212;28;20043;-87
2022/06/01 08:05:50;;;;;;;12.32;5.03;;;;;;;-147.90;100.00;59510.75;4971590;28;20386;-87
2022/06/01 08:08:18;;;;;;;13.75;5.63;;;;;;;-147.90;100.00;59510.75;4973950;28;20387;-86
2022/06/01 08:10:44;;;;;;;13.05;5.05;;;;;;;-147.90;100.00;59510.75;4973799;28;20101;-86
2022/06/01 08:13:14;;;;;;;8.88;4.57;;;;;;;-147.90;100.00;59510.75;4974046;28;20043;-87
2022/06/01 08:15:43;;;;;;;9.50;4.43;;;;;;;-147.90;100.00;59510.75;4971417;28;20186;-86
2022/06/01 08:18:12;;;;;;;11.32;4.97;;;;;;;-147.90;100.00;59510.75;4974075;28;20042;-88
2022/06/01 08:20:39;;;;;;;8.75;4.50;;;;;;;-147.90;100.00;59510.75;4971520;28;20047;-88
2022/06/01 08:23:07;;;;;;;10.02;4.07;;;;;;;-147.90;100.00;59510.75;4973719;28;20050;-87
2022/06/01 08:25:36;;;;;;;11.23;4.38;;;;;;;-147.90;100.00;59510.75;4972365;28;20101;-86
2022/06/01 08:28:04;;;;;;;9.45;3.83;;;;;;;-147.90;100.00;59510.75;4973505;28;20580;-87
2022/06/01 08:30:33;;;;;;;7.45;3.33;;;;;;;-147.90;100.00;59510.75;4972482;28;20493;-87
2022/06/01 08:33:01;;;;;;;9.20;4.07;;;;;;;-147.90;100.00;59510.75;4973726;28;20039;-87
2022/06/01 08:35:30;;;;;;;8.77;3.95;;;;;;;-147.90;100.00;59510.75;4973263;28;20133;-87
2022/06/01 08:37:59;;;;;;;9.52;3.70;;;;;;;-147.90;100.00;59510.75;4973351;28;20043;-86
2022/06/01 08:40:29;;;;;;;9.00;3.47;;;;;;;-147.90;100.00;59510.75;4973190;28;20055;-86
2022/06/01 08:43:01;;;;;;;7.50;4.00;;;;;;;-147.90;100.00;59510.75;4971836;28;20580;-86
2022/06/01 08:45:30;;;;;;;9.52;3.30;;;;;;;-147.90;100.00;59510.75;4971890;28;20051;-87
2022/06/01 08:47:57;;;;;;;4.35;3.08;;;;;;;-147.90;100.00;59510.75;4973334;28;20058;-89
2022/06/01 08:50:28;;;;;;;11.10;4.05;;;;;;;-147.90;100.00;59510.75;4971136;28;20050;-88
2022/06/01 08:52:57;;;;;;;7.63;2.97;;;;;;;-147.90;100.00;59510.75;4971058;28;20046;-88
2022/06/01 08:55:28;;;;;;;8.73;3.58;;;;;;;-147.90;100.00;59510.75;4971090;28;20485;-88
2022/06/01 08:58:02;;;;;;;5.75;2.75;;;;;;;-147.90;100.00;59510.75;4971326;28;20521;-87
2022/06/01 09:00:33;;;;;;;7.53;2.58;;;;;;;-147.90;100.00;59510.75;4971516;28;20492;-86
2022/06/01 09:03:09;;;;;;;7.50;2.35;;;;;;;-147.90;100.00;59510.75;4971705;28;20043;-88
2022/06/01 09:05:45;;;;;;;3.97;1.70;;;;;;;-147.90;100.00;59510.75;4972850;28;20042;-87
2022/06/01 09:08:23;;;;;;;14.20;3.10;;;;;;;-147.90;100.00;59510.75;4971370;28;20486;-86
2022/06/01 09:11:01;;;;;;;11.52;3.95;;;;;;;-147.90;100.00;59510.75;4972090;28;20114;-86
2022/06/01 09:13:42;;;;;;;6.00;3.00;;;;;;;-147.90;100.00;59510.75;4971234;28;20046;-87
2022/06/01 09:16:15;;;;;;;4.97;1.80;;;;;;;-147.90;100.00;59510.75;4968872;28;20074;-86
2022/06/01 09:18:45;;;;;;;4.93;1.42;;;;;;;-147.90;100.00;59510.75;4966338;28;20082;-85
2022/06/01 09:24:14;;;;;;;6.47;2.45;;;;;;;-147.90;100.00;59510.75;4970788;28;20054;-86
2022/06/01 09:26:53;;;;;;;5.55;2.05;;;;;;;-147.90;100.00;59510.75;4970696;28;20097;-87
2022/06/01 09:29:23;;;;;;;12.10;2.47;;;;;;;-147.90;100.00;59510.75;4971470;28;20121;-87
2022/06/01 09:31:55;;;;;;;6.90;1.92;;;;;;;-147.90;100.00;59510.75;4972328;28;20505;-87
2022/06/01 09:34:27;;;;;;;6.75;2.45;;;;;;;-147.90;100.00;59510.75;4972313;28;20061;-86
2022/06/01 09:37:02;;;;;;;5.38;1.65;;;;;;;-147.90;100.00;59510.75;4972159;28;20079;-87
2022/06/01 09:39:29;;;;;;;5.45;2.38;;;;;;;-147.90;100.00;59510.75;4970565;28;20418;-87
2022/06/01 09:42:12;;;;;;;6.53;2.13;;;;;;;-147.90;100.00;59510.75;4972224;28;20051;-87
2022/06/01 09:44:45;;;;;;;9.32;2.83;;;;;;;-147.90;100.00;59510.75;4971403;28;20234;-87
2022/06/01 09:47:27;;;;;;;5.03;2.80;;;;;;;-147.90;100.00;59510.75;4972209;28;20051;-86
2022/06/01 09:49:56;;;;;;;7.28;3.00;;;;;;;-147.90;100.00;59510.75;4971284;28;20082;-87
2022/06/01 09:52:28;;;;;;;10.35;2.53;;;;;;;-147.90;100.00;59510.75;4969870;28;20077;-87
2022/06/01 09:54:57;;;;;;;6.15;2.22;;;;;;;-147.90;100.00;59510.75;4963436;28;20082;-87
2022/06/01 09:57:28;;;;;;;8.75;2.75;;;;;;;-147.90;100.00;59510.75;4970507;28;20054;-86
2022/06/01 10:08:21;;;;;;;7.10;2.45;;;;;;;-147.90;100.00;59510.75;4967501;28;20085;-88
2022/06/01 10:10:58;;;;;;;6.03;2.22;;;;;;;-147.90;100.00;59510.75;4970139;28;20056;-86
2022/06/01 10:13:31;;;;;;;6.10;2.13;;;;;;;-147.90;100.00;59510.75;4970811;28;20067;-86
2022/06/01 10:16:03;;;;;;;11.65;2.50;;;;;;;-147.90;100.00;59510.75;4970999;28;20441;-85
2022/06/01 10:18:33;;;;;;;7.80;2.42;;;;;;;-147.90;100.00;59510.75;4971353;28;20047;-85
2022/06/01 10:21:05;;;;;;;7.25;2.30;;;;;;;-147.90;100.00;59510.75;4971383;28;20050;-87
2022/06/01 10:23:40;;;;;;;8.35;2.67;;;;;;;-147.90;100.00;59510.75;4971383;28;20043;-86
2022/06/01 10:26:11;;;;;;;4.95;2.28;;;;;;;-147.90;100.00;59510.75;4970155;28;20054;-87
2022/06/01 10:28:42;;;;;;;8.50;2.70;;;;;;;-147.90;100.00;59510.75;4968975;28;20050;-86
2022/06/01 10:31:24;;;;;;;10.77;2.75;;;;;;;-147.90;100.00;59510.75;4971574;28;20047;-87
2022/06/01 10:33:58;;;;;;;8.82;2.58;;;;;;;-147.90;100.00;59510.75;4969797;28;20102;-87
2022/06/01 10:36:38;;;;;;;6.32;2.80;;;;;;;-147.90;100.00;59510.75;4970082;28;20058;-89
2022/06/01 10:39:10;;;;;;;7.43;2.53;;;;;;;-147.90;100.00;59510.75;4969166;28;20552;-87
2022/06/01 10:41:41;;;;;;;6.55;2.70;;;;;;;-147.90;100.00;59510.75;4969729;28;20133;-88
2022/06/01 10:44:12;;;;;;;6.75;2.75;;;;;;;-147.90;100.00;59510.75;4968416;28;20425;-87
2022/06/01 10:46:49;;;;;;;7.15;2.80;;;;;;;-147.90;100.00;59510.75;4969414;28;20061;-89
2022/06/01 10:49:27;;;;;;;6.55;3.10;;;;;;;-147.90;100.00;59510.75;4970406;28;20474;-87
2022/06/01 10:52:03;;;;;;;6.63;3.38;;;;;;;-147.90;100.00;59510.75;4969719;28;20046;-88
2022/06/01 10:54:34;;;;;;;;;;;;;;;-147.90;100.00;59510.75;4971033;28;20054;-86
2022/06/01 10:57:03;;;;;;;6.57;3.17;;;;;;;-147.90;100.00;59510.75;4971030;28;20313;-88
2022/06/01 10:59:29;;;;;;;10.23;3.90;;;;;;;-147.90;100.00;59510.75;4968429;28;20097;-89
2022/06/01 11:02:09;;;;;;;8.02;3.72;;;;;;;-147.90;100.00;59510.75;4965666;28;20086;-86
2022/06/01 11:04:56;;;;;;;6.72;3.28;;;;;;;-147.90;100.00;59510.75;4970191;28;20049;-90
2022/06/01 11:07:50;;;;;;;6.47;3.15;;;;;;;-147.90;100.00;59510.75;4969219;28;20512;-89
2022/06/01 11:10:30;;;;;;;10.37;3.70;;;;;;;-147.90;100.00;59510.75;4961455;28;20046;-88
2022/06/01 11:13:09;;;;;;;6.70;3.33;;;;;;;-147.90;100.00;59510.75;4969923;28;20117;-89
2022/06/01 11:15:46;;;;;;;6.30;3.38;;;;;;;-147.90;100.00;59510.75;4970388;28;20090;-91
2022/06/01 11:18:39;;;;;;;6.78;2.95;;;;;;;-147.90;100.00;59510.75;4969547;28;20097;-89
2022/06/01 11:21:16;;;;;;;8.15;3.28;;;;;;;-147.90;100.00;59510.75;4967051;28;20054;-86
2022/06/01 11:24:04;;;;;;;5.38;2.72;;;;;;;-147.90;100.00;59510.75;4968203;28;20090;-88
2022/06/01 11:26:59;;;;;;;7.78;2.80;;;;;;;-147.90;100.00;59510.75;4969431;28;20484;-87
2022/06/01 11:29:44;;;;;;;11.38;2.80;;;;;;;-147.90;100.00;59510.75;4967212;28;20050;-89
2022/06/01 11:32:18;;;;;;;9.38;2.65;;;;;;;-147.90;100.00;59510.75;4969072;28;20046;-95
2022/06/01 11:34:54;;;;;;;8.05;2.63;;;;;;;-147.90;100.00;59510.75;4969167;28;20054;-92
2022/06/01 11:37:25;;;;;;;9.20;3.33;;;;;;;-147.90;100.00;59510.75;4969903;28;20059;-89
2022/06/01 11:39:58;;;;;;;5.72;3.53;;;;;;;-147.90;100.00;59510.75;4971289;28;20484;-88
2022/06/01 11:42:30;;;;;;;6.75;2.33;;;;;;;-147.90;100.00;59510.75;4973394;28;20133;-88
2022/06/01 11:45:01;;;;;;;4.32;2.00;;;;;;;-147.90;100.00;59510.75;4969722;28;20094;-89
2022/06/01 11:47:34;;;;;;;3.97;2.10;;;;;;;-147.90;100.00;59510.75;4972722;28;20059;-89
2022/06/01 11:50:24;;;;;;;8.85;2.60;;;;;;;-147.90;100.00;59510.75;4972611;28;20046;-89
2022/06/01 11:52:55;;;;;;;4.50;2.03;;;;;;;-147.90;100.00;59510.75;4962651;28;20043;-92
2022/06/01 11:55:40;;;;;;;7.30;2.13;;;;;;;-147.90;100.00;59510.75;4971480;28;20051;-93
2022/06/01 11:58:10;;;;;;;6.05;2.47;;;;;;;-147.90;100.00;59510.75;4963545;28;21911;-88
2022/06/01 12:00:43;;;;;;;6.97;1.60;;;;;;;-147.90;100.00;59510.75;4972150;28;20452;-89
2022/06/01 12:03:39;;;;;;;9.18;1.13;;;;;;;-147.90;100.00;59510.75;4972593;28;20497;-91
2022/06/01 12:06:12;;;;;;;4.97;1.83;;;;;;;-147.90;100.00;59510.75;4973334;28;20405;-91
2022/06/01 12:08:44;;;;;;;6.07;2.80;;;;;;;-147.90;100.00;59510.75;4973691;28;20043;-91
2022/06/01 12:11:15;;;;;;;7.30;2.25;;;;;;;-147.90;100.00;59510.75;4973900;28;20485;-90
2022/06/01 12:13:55;;;;;;;10.48;3.10;;;;;;;-147.90;100.00;59510.75;4972700;28;20059;-94
2022/06/01 12:16:25;;;;;;;6.53;2.05;;;;;;;-147.90;100.00;59510.75;4972940;28;20071;-88
2022/06/01 12:19:11;;;;;;;7.90;2.30;;;;;;;-147.90;100.00;59510.75;4973454;28;20050;-88
2022/06/01 12:21:58;;;;;;;4.00;1.85;;;;;;;-147.90;100.00;59510.75;4971143;28;20053;-90
2022/06/01 12:30:15;;;;;;;7.45;1.60;;;;;;;-147.90;100.00;59510.75;4972449;28;20070;-87
2022/06/01 12:33:09;;;;;;;9.70;2.22;;;;;;;-147.90;100.00;59510.75;4973265;28;20519;-89
2022/06/01 12:35:58;;;;;;;7.07;1.77;;;;;;;-147.90;100.00;59510.75;4972231;28;20042;-89
2022/06/01 12:38:33;;;;;;;8.32;1.52;;;;;;;-147.90;100.00;59510.75;4965499;28;20097;-89
2022/06/01 12:41:15;;;;;;;3.35;1.30;;;;;;;-147.90;100.00;59510.75;4973288;28;20053;-91
2022/06/01 12:43:49;;;;;;;6.68;1.58;;;;;;;-147.90;100.00;59510.75;4972871;28;20110;-90
2022/06/01 12:46:26;;;;;;;6.65;1.85;;;;;;;-147.90;100.00;59510.75;4972741;28;20105;-90
2022/06/01 12:49:13;;;;;;;4.07;1.40;;;;;;;-147.90;100.00;59510.75;4972139;28;20501;-91
2022/06/01 12:51:46;;;;;;;4.97;1.67;;;;;;;-147.90;100.00;59510.75;4971204;28;20142;-92
2022/06/01 12:54:25;;;;;;;6.38;1.95;;;;;;;-147.90;100.00;59510.75;4973336;28;22396;-91
2022/06/01 12:56:52;;;;;;;4.80;1.35;;;;;;;-147.90;100.00;59510.75;4970746;28;20457;-93
2022/06/01 12:59:18;;;;;;;5.85;1.40;;;;;;;-147.90;100.00;59510.75;4971213;28;20050;-88
2022/06/01 13:01:50;;;;;;;7.53;1.65;;;;;;;-147.90;100.00;59510.75;4972042;28;20053;-87
2022/06/01 13:04:23;;;;;;;7.63;1.35;;;;;;;-147.90;100.00;59510.75;4972631;28;20057;-90
2022/06/01 13:06:50;;;;;;;4.40;1.33;;;;;;;-147.90;100.00;59510.75;4971051;28;20564;-92
2022/06/01 13:09:25;;;;;;;4.72;1.50;;;;;;;-147.90;100.00;59510.75;4972675;28;20101;-93
2022/06/01 13:12:03;;;;;;;3.83;1.70;;;;;;;-147.90;100.00;59510.75;4971285;28;20106;-93
2022/06/01 13:14:32;;;;;;;5.85;1.55;;;;;;;-147.90;100.00;59510.75;4971912;28;20117;-89
2022/06/01 13:17:01;;;;;;;4.30;1.50;;;;;;;-147.90;100.00;59510.75;4970094;28;20478;-92
2022/06/01 13:19:30;;;;;;;4.47;1.42;;;;;;;-147.90;100.00;59510.75;4972534;28;20046;-90
2022/06/01 13:22:08;;;;;;;7.35;2.20;;;;;;;-147.90;100.00;59510.75;4972735;28;20117;-91
2022/06/01 13:24:43;;;;;;;5.00;1.55;;;;;;;-147.90;100.00;59510.75;4970725;28;20097;-89
2022/06/01 13:27:11;;;;;;;3.33;1.65;;;;;;;-147.90;100.00;59510.75;4971158;28;20493;-91
2022/06/01 13:29:43;;;;;;;7.78;1.80;;;;;;;-147.90;100.00;59510.75;4972532;28;20042;-92
2022/06/01 13:32:12;;;;;;;5.78;1.83;;;;;;;-147.90;100.00;59510.75;4970821;28;20097;-93
2022/06/01 13:34:47;;;;;;;5.07;2.13;;;;;;;-147.90;100.00;59510.75;4972609;28;20113;-89
2022/06/01 13:37:19;;;;;;;5.57;1.88;;;;;;;-147.90;100.00;59510.75;4972605;28;20042;-90
2022/06/01 13:39:55;;;;;;;5.88;1.48;;;;;;;-147.90;100.00;59510.75;4972361;28;20071;-93
2022/06/01 13:42:27;;;;;;;6.22;1.73;;;;;;;-147.90;100.00;59510.75;4963173;28;20053;-91
2022/06/01 13:45:09;;;;;;;6.90;2.05;;;;;;;-147.90;100.00;59510.75;4964920;28;20042;-88
2022/06/01 13:47:46;;;;;;;4.88;1.27;;;;;;;-147.90;100.00;59510.75;4963551;28;20145;-90
2022/06/01 13:50:29;;;;;;;3.50;1.23;;;;;;;-147.90;100.00;59510.75;4966772;28;20429;-93
2022/06/01 13:53:14;;;;;;;5.80;1.02;;;;;;;-147.90;100.00;59510.75;4972914;28;20613;-96
2022/06/01 13:56:02;;;;;;;;;;;;;;;-147.90;100.00;59510.75;4969719;28;20051;-93
2022/06/01 13:58:42;;;;;;;8.18;1.45;;;;;;;-147.90;100.00;59510.75;4971050;28;19922;-90
2022/06/01 14:01:30;;;;;;;9.20;1.45;;;;;;;-147.90;100.00;59510.75;4966513;28;20087;-95
2022/06/01 14:04:00;;;;;;;6.22;1.50;;;;;;;-147.90;100.00;59510.75;4968765;28;20476;-90